createdAt,value
2024-04-24T00:01:25.847Z,32.30
2024-04-24T00:03:52.617Z,32.40
2024-04-24T00:06:19.436Z,32.50
2024-04-24T00:08:46.258Z,33.10
2024-04-24T00:11:13.049Z,32.60
2024-04-24T00:13:39.822Z,32.60
2024-04-24T00:16:06.761Z,32.60
2024-04-24T00:18:33.636Z,32.50
2024-04-24T00:21:00.420Z,32.60
2024-04-24T00:23:27.177Z,32.50
2024-04-24T00:25:57.064Z,32.50
2024-04-24T00:28:23.841Z,32.60
2024-04-24T00:31:00.199Z,32.50
2024-04-24T00:33:26.979Z,32.60
2024-04-24T00:35:53.783Z,32.60
2024-04-24T00:38:20.629Z,32.70
2024-04-24T00:40:47.477Z,32.80
2024-04-24T00:43:14.225Z,32.80
2024-04-24T00:45:41.594Z,33.60
2024-04-24T00:48:09.165Z,33.00
2024-04-24T00:50:35.980Z,32.90
2024-04-24T00:53:02.978Z,33.00
2024-04-24T00:55:29.966Z,33.00
2024-04-24T00:57:56.767Z,33.00
2024-04-24T01:00:23.539Z,33.00
2024-04-24T01:02:50.330Z,33.00
2024-04-24T01:05:17.240Z,33.10
2024-04-24T01:07:44.061Z,33.20
2024-04-24T01:10:17.900Z,33.30
2024-04-24T01:12:44.823Z,33.30
2024-04-24T01:15:11.583Z,33.30
2024-04-24T01:17:38.442Z,33.40
2024-04-24T01:20:06.829Z,33.50
2024-04-24T01:22:39.787Z,33.50
2024-04-24T01:25:42.096Z,33.70
2024-04-24T01:28:08.865Z,33.70
2024-04-24T01:30:35.722Z,33.60
2024-04-24T01:33:02.623Z,34.60
2024-04-24T01:35:29.812Z,34.80
2024-04-24T01:37:56.599Z,35.00
2024-04-24T01:40:23.728Z,34.90
2024-04-24T01:42:50.478Z,34.90
2024-04-24T01:45:17.264Z,35.10
2024-04-24T01:47:44.218Z,35.20
2024-04-24T01:50:11.084Z,35.20
2024-04-24T01:52:37.875Z,35.30
2024-04-24T01:55:04.735Z,35.40
2024-04-24T01:57:31.473Z,35.40
2024-04-24T01:59:58.205Z,35.60
2024-04-24T02:02:24.999Z,35.70
2024-04-24T02:04:51.783Z,35.90
2024-04-24T02:07:18.619Z,35.90
2024-04-24T02:09:45.384Z,35.80
2024-04-24T02:12:16.546Z,35.80
2024-04-24T02:14:44.231Z,35.90
2024-04-24T02:17:11.045Z,35.80
2024-04-24T02:19:37.939Z,35.80
2024-04-24T02:22:04.728Z,35.80
2024-04-24T02:24:50.102Z,35.80
2024-04-24T02:27:17.010Z,35.80
2024-04-24T02:29:51.687Z,35.70
2024-04-24T02:32:23.194Z,35.80
2024-04-24T02:34:50.235Z,35.80
2024-04-24T02:37:17.009Z,35.80
2024-04-24T02:39:43.781Z,35.80
2024-04-24T02:42:10.568Z,35.90
2024-04-24T02:44:37.775Z,35.80
2024-04-24T02:47:04.692Z,35.90
2024-04-24T02:49:31.468Z,36.00
2024-04-24T02:51:58.214Z,35.90
2024-04-24T02:54:24.991Z,36.00
2024-04-24T02:56:53.450Z,36.00
2024-04-24T02:59:20.867Z,36.00
2024-04-24T03:01:47.874Z,35.90
2024-04-24T03:04:14.672Z,35.90
2024-04-24T03:06:44.916Z,35.80
2024-04-24T03:09:12.363Z,35.90
2024-04-24T03:11:39.840Z,36.00
2024-04-24T03:14:06.827Z,35.90
2024-04-24T03:16:34.069Z,36.00
2024-04-24T03:19:00.914Z,36.00
2024-04-24T03:21:27.664Z,35.90
2024-04-24T03:23:54.408Z,35.90
2024-04-24T03:26:21.250Z,35.90
2024-04-24T03:28:48.080Z,36.00
2024-04-24T03:31:14.846Z,36.10
2024-04-24T03:33:41.643Z,36.10
2024-04-24T03:36:08.516Z,36.10
2024-04-24T03:38:35.259Z,36.00
2024-04-24T03:41:02.092Z,36.10
2024-04-24T03:43:28.898Z,36.10
2024-04-24T03:45:55.635Z,36.10
2024-04-24T03:48:22.410Z,36.10
2024-04-24T03:50:49.743Z,36.10
2024-04-24T03:53:16.593Z,36.10
2024-04-24T03:55:43.555Z,36.20
2024-04-24T03:58:10.349Z,36.20
2024-04-24T04:00:37.246Z,36.20
2024-04-24T04:03:04.424Z,36.20
2024-04-24T04:05:31.473Z,36.20
2024-04-24T04:08:01.820Z,36.20
2024-04-24T04:10:28.611Z,36.20
2024-04-24T04:12:55.352Z,36.30
2024-04-24T04:15:22.133Z,36.30
2024-04-24T04:17:49.134Z,36.40
2024-04-24T04:20:16.159Z,36.40
2024-04-24T04:22:43.368Z,36.50
2024-04-24T04:25:10.507Z,36.50
2024-04-24T04:27:37.391Z,36.60
2024-04-24T04:30:04.466Z,36.60
2024-04-24T04:32:31.439Z,36.70
2024-04-24T04:34:58.308Z,36.70
2024-04-24T04:37:25.147Z,36.70
2024-04-24T04:39:52.100Z,36.70
2024-04-24T04:42:18.910Z,36.80
2024-04-24T04:44:45.714Z,36.80
2024-04-24T04:47:12.548Z,36.80
2024-04-24T04:49:39.363Z,36.80
2024-04-24T04:52:06.263Z,36.90
2024-04-24T04:54:33.024Z,36.90
2024-04-24T04:56:59.761Z,36.90
2024-04-24T04:59:26.550Z,36.90
2024-04-24T05:01:55.161Z,36.90
2024-04-24T05:04:22.672Z,36.90
2024-04-24T05:06:49.512Z,36.80
2024-04-24T05:09:16.242Z,37.00
2024-04-24T05:11:46.979Z,37.00
2024-04-24T05:14:14.492Z,37.00
2024-04-24T05:16:41.594Z,37.00
2024-04-24T05:19:08.404Z,37.00
2024-04-24T05:21:35.274Z,37.00
2024-04-24T05:24:02.211Z,36.70
2024-04-24T05:26:47.721Z,36.40
2024-04-24T05:29:15.627Z,36.40
2024-04-24T05:31:42.550Z,36.30
2024-04-24T05:34:09.360Z,36.10
2024-04-24T05:36:36.179Z,36.00
2024-04-24T05:39:03.035Z,35.90
2024-04-24T05:41:29.893Z,35.90
2024-04-24T05:43:56.797Z,36.00
2024-04-24T05:46:23.550Z,36.00
2024-04-24T05:48:50.447Z,36.10
2024-04-24T05:51:17.300Z,36.20
2024-04-24T05:53:44.051Z,36.20
2024-04-24T05:56:10.842Z,36.30
2024-04-24T05:58:37.626Z,36.50
2024-04-24T06:01:04.513Z,36.50
2024-04-24T06:03:31.304Z,37.20
2024-04-24T06:05:58.546Z,36.50
2024-04-24T06:08:25.339Z,35.30
2024-04-24T06:10:52.285Z,34.70
2024-04-24T06:13:19.102Z,34.60
2024-04-24T06:15:45.896Z,34.70
2024-04-24T06:18:12.684Z,35.30
2024-04-24T06:20:39.911Z,34.50
2024-04-24T06:23:10.400Z,34.00
2024-04-24T06:25:37.506Z,33.70
2024-04-24T06:28:04.539Z,33.30
2024-04-24T06:30:31.294Z,33.10
2024-04-24T06:32:58.187Z,32.80
2024-04-24T06:35:27.304Z,31.90
2024-04-24T06:37:55.025Z,30.80
2024-04-24T06:40:25.184Z,30.40
2024-04-24T06:42:53.274Z,29.90
2024-04-24T06:45:20.088Z,30.00
2024-04-24T06:47:47.009Z,30.00
2024-04-24T06:50:13.975Z,29.80
2024-04-24T06:52:40.983Z,29.60
2024-04-24T06:55:07.961Z,29.50
2024-04-24T06:57:35.566Z,29.80
2024-04-24T07:00:04.052Z,30.00
2024-04-24T07:02:30.878Z,30.50
2024-04-24T07:04:57.661Z,31.20
2024-04-24T07:07:24.786Z,31.90
2024-04-24T07:09:57.704Z,32.30
2024-04-24T07:12:24.579Z,32.60
2024-04-24T07:14:58.717Z,32.80
2024-04-24T07:17:26.127Z,33.00
2024-04-24T07:19:53.230Z,33.20
2024-04-24T07:22:20.138Z,33.30
2024-04-24T07:24:46.970Z,33.30
2024-04-24T07:27:17.362Z,33.20
2024-04-24T07:29:45.809Z,33.10
2024-04-24T07:32:12.760Z,32.50
2024-04-24T07:34:39.815Z,32.20
2024-04-24T07:37:10.013Z,32.00
2024-04-24T07:39:40.102Z,32.00
2024-04-24T07:42:09.929Z,32.00
2024-04-24T07:44:38.067Z,31.80
2024-04-24T07:47:05.073Z,31.60
2024-04-24T07:49:31.913Z,31.50
2024-04-24T07:51:58.646Z,31.60
2024-04-24T07:54:25.405Z,31.60
2024-04-24T07:56:52.177Z,31.70
2024-04-24T07:59:18.990Z,31.90
2024-04-24T08:01:45.778Z,32.10
2024-04-24T08:04:13.694Z,32.50
2024-04-24T08:06:41.001Z,32.60
2024-04-24T08:09:07.751Z,32.40
2024-04-24T08:11:34.614Z,32.20
2024-04-24T08:14:04.168Z,32.20
2024-04-24T08:16:31.164Z,32.20
2024-04-24T08:18:57.993Z,32.10
2024-04-24T08:21:24.800Z,31.80
2024-04-24T08:23:51.636Z,31.70
2024-04-24T08:26:18.430Z,31.60
2024-04-24T08:28:45.266Z,31.60
2024-04-24T08:31:12.066Z,31.90
2024-04-24T08:33:39.143Z,32.20
2024-04-24T08:36:16.460Z,32.40
2024-04-24T08:38:43.302Z,32.80
2024-04-24T08:41:11.153Z,33.10
2024-04-24T08:43:39.182Z,33.90
2024-04-24T08:46:07.090Z,35.00
2024-04-24T08:48:35.630Z,35.60
2024-04-24T08:51:02.873Z,36.00
2024-04-24T08:53:33.572Z,36.30
2024-04-24T08:56:08.195Z,36.40
2024-04-24T08:58:36.511Z,36.60
2024-04-24T09:01:09.589Z,36.50
2024-04-24T09:03:41.013Z,36.70
2024-04-24T09:06:09.791Z,36.60
2024-04-24T09:08:36.670Z,36.10
2024-04-24T09:11:03.587Z,36.30
2024-04-24T09:13:30.483Z,36.30
2024-04-24T09:15:57.271Z,36.30
2024-04-24T09:18:24.097Z,36.40
2024-04-24T09:20:51.556Z,36.10
2024-04-24T09:23:23.296Z,35.70
2024-04-24T09:25:51.156Z,35.80
2024-04-24T09:28:21.139Z,35.70
2024-04-24T09:30:51.386Z,35.70
2024-04-24T09:33:18.283Z,35.70
2024-04-24T09:35:45.230Z,36.30
2024-04-24T09:38:12.360Z,35.80
2024-04-24T09:40:48.471Z,35.90
2024-04-24T09:43:16.555Z,35.90
2024-04-24T09:45:44.735Z,36.00
2024-04-24T09:48:16.956Z,36.10
2024-04-24T09:50:44.559Z,36.20
2024-04-24T09:53:19.669Z,36.30
2024-04-24T09:55:59.428Z,36.40
2024-04-24T09:58:26.224Z,36.40
2024-04-24T10:00:53.353Z,36.50
2024-04-24T10:03:20.832Z,36.60
2024-04-24T10:05:56.597Z,36.30
2024-04-24T10:08:27.851Z,35.60
2024-04-24T10:10:54.764Z,35.20
2024-04-24T10:13:22.639Z,34.90
2024-04-24T10:15:59.172Z,35.00
2024-04-24T10:18:26.734Z,34.30
2024-04-24T10:20:55.439Z,33.90
2024-04-24T10:23:25.830Z,33.90
2024-04-24T10:25:52.938Z,34.30
2024-04-24T10:28:21.975Z,34.80
2024-04-24T10:30:48.958Z,35.30
2024-04-24T10:33:16.093Z,35.60
2024-04-24T10:35:43.209Z,35.90
2024-04-24T10:38:10.123Z,36.20
2024-04-24T10:40:37.220Z,36.70
2024-04-24T10:43:08.056Z,36.90
2024-04-24T10:45:42.706Z,36.70
2024-04-24T10:48:11.161Z,36.00
2024-04-24T10:50:42.405Z,35.90
2024-04-24T10:53:13.577Z,35.30
2024-04-24T10:55:54.896Z,35.10
2024-04-24T10:58:21.998Z,34.60
2024-04-24T11:00:51.957Z,34.60
2024-04-24T11:03:19.171Z,34.90
2024-04-24T11:05:46.446Z,34.50
2024-04-24T11:08:20.308Z,33.30
2024-04-24T11:10:53.992Z,31.80
2024-04-24T11:13:21.012Z,29.90
2024-04-24T11:15:58.158Z,29.00
2024-04-24T11:18:29.414Z,28.50
2024-04-24T11:20:57.290Z,27.80
2024-04-24T11:23:24.305Z,28.20
2024-04-24T11:25:58.434Z,27.00
2024-04-24T11:28:27.278Z,27.50
2024-04-24T11:30:55.876Z,28.90
2024-04-24T11:33:23.325Z,29.50
2024-04-24T11:35:50.562Z,28.20
2024-04-24T11:38:17.398Z,27.40
2024-04-24T11:40:44.212Z,27.30
2024-04-24T11:43:10.970Z,26.60
2024-04-24T11:45:37.898Z,26.20
2024-04-24T11:48:05.894Z,26.00
2024-04-24T11:50:32.859Z,25.80
2024-04-24T11:53:03.345Z,25.70
2024-04-24T11:55:33.955Z,25.40
2024-04-24T11:58:00.724Z,25.20
2024-04-24T12:00:27.488Z,24.80
2024-04-24T12:02:54.259Z,25.60
2024-04-24T12:05:21.303Z,25.00
2024-04-24T12:07:48.094Z,25.00
2024-04-24T12:10:21.967Z,25.00
2024-04-24T12:12:48.752Z,25.00
2024-04-24T12:15:16.033Z,25.00
2024-04-24T12:17:42.833Z,24.90
2024-04-24T12:20:09.947Z,25.20
2024-04-24T12:22:36.702Z,25.40
2024-04-24T12:25:03.539Z,25.50
2024-04-24T12:27:30.764Z,25.60
2024-04-24T12:29:59.313Z,25.40
2024-04-24T12:32:26.204Z,25.50
2024-04-24T12:34:53.042Z,26.40
2024-04-24T12:37:19.862Z,27.10
2024-04-24T12:39:46.659Z,27.10
2024-04-24T12:42:13.512Z,27.10
2024-04-24T12:44:40.301Z,27.20
2024-04-24T12:47:07.147Z,27.10
2024-04-24T12:49:33.992Z,27.10
2024-04-24T12:52:00.749Z,27.20
2024-04-24T12:54:27.539Z,27.30
2024-04-24T12:56:54.509Z,26.80
2024-04-24T12:59:21.305Z,26.40
2024-04-24T13:01:48.120Z,25.90
2024-04-24T13:04:15.061Z,26.30
2024-04-24T13:06:41.919Z,26.50
2024-04-24T13:09:09.401Z,26.50
2024-04-24T13:11:36.282Z,26.40
2024-04-24T13:14:03.189Z,26.70
2024-04-24T13:16:29.970Z,26.90
2024-04-24T13:18:56.918Z,27.20
2024-04-24T13:21:23.815Z,27.00
2024-04-24T13:23:50.631Z,27.10
2024-04-24T13:26:17.676Z,27.70
2024-04-24T13:28:45.073Z,28.10
2024-04-24T13:31:12.101Z,27.50
2024-04-24T13:33:39.006Z,27.30
2024-04-24T13:36:06.087Z,27.20
2024-04-24T13:38:32.858Z,26.90
2024-04-24T13:41:04.294Z,26.40
2024-04-24T13:43:31.123Z,26.30
2024-04-24T13:45:57.865Z,26.30
2024-04-24T13:48:25.401Z,26.40
2024-04-24T13:50:52.884Z,26.90
2024-04-24T13:53:19.904Z,26.90
2024-04-24T13:55:50.055Z,26.90
2024-04-24T13:58:16.910Z,27.10
2024-04-24T14:00:43.884Z,27.20
2024-04-24T14:03:10.813Z,27.20
2024-04-24T14:05:37.781Z,27.20
2024-04-24T14:08:04.930Z,27.20
2024-04-24T14:10:31.785Z,27.40
2024-04-24T14:12:58.573Z,27.40
2024-04-24T14:15:25.370Z,27.50
2024-04-24T14:17:52.194Z,27.60
2024-04-24T14:20:19.081Z,27.80
2024-04-24T14:22:45.844Z,28.10
2024-04-24T14:25:12.603Z,28.30
2024-04-24T14:27:39.412Z,28.60
2024-04-24T14:30:06.853Z,28.90
2024-04-24T14:32:33.888Z,29.10
2024-04-24T14:35:00.839Z,29.30
2024-04-24T14:37:27.657Z,29.70
2024-04-24T14:39:54.472Z,30.30
2024-04-24T14:42:22.350Z,31.00
2024-04-24T14:44:49.170Z,31.20
2024-04-24T14:47:20.142Z,31.40
2024-04-24T14:49:47.067Z,31.70
2024-04-24T14:52:16.295Z,31.80
2024-04-24T14:54:43.079Z,31.90
2024-04-24T14:57:10.482Z,31.80
2024-04-24T14:59:37.252Z,31.70
2024-04-24T15:02:04.350Z,32.20
2024-04-24T15:04:31.275Z,31.30
2024-04-24T15:07:08.782Z,31.20
2024-04-24T15:09:35.815Z,31.40
2024-04-24T15:12:03.066Z,32.10
2024-04-24T15:14:29.990Z,33.50
2024-04-24T15:16:56.877Z,34.40
2024-04-24T15:19:23.690Z,35.10
2024-04-24T15:21:50.734Z,35.10
2024-04-24T15:24:17.754Z,35.40
2024-04-24T15:26:45.429Z,35.80
2024-04-24T15:29:12.256Z,36.00
2024-04-24T15:31:39.112Z,35.70
2024-04-24T15:34:06.784Z,35.80
2024-04-24T15:36:33.575Z,35.60
2024-04-24T15:39:00.436Z,35.60
2024-04-24T15:41:27.323Z,35.30
2024-04-24T15:43:54.412Z,35.30
2024-04-24T15:46:21.234Z,35.70
2024-04-24T15:48:48.159Z,35.60
2024-04-24T15:51:14.985Z,35.30
2024-04-24T15:53:41.812Z,34.80
2024-04-24T15:56:08.623Z,35.10
2024-04-24T15:58:35.383Z,35.40
2024-04-24T16:01:02.298Z,35.60
2024-04-24T16:03:30.120Z,35.70
2024-04-24T16:05:56.900Z,35.70
2024-04-24T16:08:23.677Z,35.30
2024-04-24T16:10:50.508Z,35.20
2024-04-24T16:13:17.274Z,35.40
2024-04-24T16:15:44.048Z,35.50
2024-04-24T16:18:10.918Z,35.10
2024-04-24T16:20:37.872Z,34.70
2024-04-24T16:23:04.854Z,34.70
2024-04-24T16:25:32.023Z,34.40
2024-04-24T16:27:58.848Z,34.10
2024-04-24T16:30:25.854Z,34.10
2024-04-24T16:32:55.887Z,33.50
2024-04-24T16:35:22.727Z,33.50
2024-04-24T16:37:49.578Z,33.40
2024-04-24T16:40:16.336Z,33.40
2024-04-24T16:42:43.259Z,33.30
2024-04-24T16:45:13.420Z,33.50
2024-04-24T16:47:40.293Z,34.30
2024-04-24T16:50:07.148Z,33.70
2024-04-24T16:52:36.179Z,33.80
2024-04-24T16:55:03.526Z,34.00
2024-04-24T16:57:30.476Z,34.00
2024-04-24T16:59:57.228Z,33.90
2024-04-24T17:02:24.027Z,33.80
2024-04-24T17:04:51.009Z,34.00
2024-04-24T17:07:20.677Z,34.10
2024-04-24T17:09:48.162Z,34.10
2024-04-24T17:12:14.930Z,34.10
2024-04-24T17:14:41.712Z,34.20
2024-04-24T17:17:10.700Z,34.30
2024-04-24T17:19:40.089Z,34.30
2024-04-24T17:22:07.203Z,34.50
2024-04-24T17:24:34.083Z,34.50
2024-04-24T17:27:00.886Z,34.60
2024-04-24T17:29:27.708Z,34.60
2024-04-24T17:31:54.589Z,34.50
2024-04-24T17:34:24.223Z,34.50
2024-04-24T17:36:51.126Z,34.40
2024-04-24T17:39:17.888Z,34.30
2024-04-24T17:41:44.680Z,34.20
2024-04-24T17:44:11.530Z,34.30
2024-04-24T17:46:38.372Z,34.40
2024-04-24T17:49:05.253Z,34.50
2024-04-24T17:51:32.131Z,34.40
2024-04-24T17:53:58.954Z,34.30
2024-04-24T17:56:26.621Z,34.20
2024-04-24T17:58:53.494Z,34.20
2024-04-24T18:01:20.263Z,34.30
2024-04-24T18:03:47.066Z,34.30
2024-04-24T18:06:13.888Z,34.20
2024-04-24T18:08:41.347Z,34.20
2024-04-24T18:11:08.481Z,34.20
2024-04-24T18:13:37.086Z,34.20
2024-04-24T18:16:04.015Z,34.40
2024-04-24T18:18:30.964Z,34.60
2024-04-24T18:20:57.931Z,34.70
2024-04-24T18:23:24.718Z,34.80
2024-04-24T18:25:51.481Z,34.90
2024-04-24T18:28:18.362Z,35.00
2024-04-24T18:30:45.123Z,35.20
2024-04-24T18:33:12.123Z,35.20
2024-04-24T18:35:39.359Z,35.40
2024-04-24T18:38:06.232Z,35.50
2024-04-24T18:40:33.013Z,35.60
2024-04-24T18:42:59.850Z,35.70
2024-04-24T18:45:26.641Z,35.80
2024-04-24T18:47:53.562Z,35.80
2024-04-24T18:50:20.469Z,35.90
2024-04-24T18:52:47.270Z,36.60
2024-04-24T18:55:14.044Z,36.00
2024-04-24T18:57:43.636Z,36.10
2024-04-24T19:00:13.098Z,36.10
2024-04-24T19:02:40.167Z,36.70
2024-04-24T19:05:07.101Z,36.10
2024-04-24T19:07:33.927Z,36.20
2024-04-24T19:10:00.710Z,36.20
2024-04-24T19:12:27.540Z,36.20
2024-04-24T19:14:54.325Z,36.30
2024-04-24T19:17:22.282Z,36.30
2024-04-24T19:19:49.287Z,36.30
2024-04-24T19:22:17.127Z,36.10
2024-04-24T19:24:43.879Z,36.20
2024-04-24T19:27:11.207Z,36.30
2024-04-24T19:29:38.053Z,36.20
2024-04-24T19:32:05.066Z,36.10
2024-04-24T19:34:31.919Z,36.20
2024-04-24T19:36:58.737Z,36.20
2024-04-24T19:39:25.483Z,36.30
2024-04-24T19:41:52.240Z,36.20
2024-04-24T19:44:19.000Z,36.30
2024-04-24T19:46:45.818Z,36.40
2024-04-24T19:49:12.602Z,36.50
2024-04-24T19:51:39.354Z,36.50
2024-04-24T19:54:06.688Z,36.40
2024-04-24T19:56:35.808Z,36.50
2024-04-24T19:59:04.096Z,36.40
2024-04-24T20:01:30.932Z,36.50
2024-04-24T20:03:59.643Z,36.50
2024-04-24T20:06:26.496Z,36.50
2024-04-24T20:08:53.240Z,36.60
2024-04-24T20:11:20.022Z,36.70
2024-04-24T20:13:46.842Z,36.70
2024-04-24T20:16:13.572Z,36.70
2024-04-24T20:18:40.521Z,36.60
2024-04-24T20:21:15.059Z,36.60
2024-04-24T20:23:41.943Z,36.70
2024-04-24T20:26:27.449Z,36.70
2024-04-24T20:28:54.469Z,36.90
2024-04-24T20:31:25.583Z,36.80
2024-04-24T20:33:53.703Z,37.00
2024-04-24T20:36:20.527Z,37.00
2024-04-24T20:38:48.617Z,37.10
2024-04-24T20:41:15.515Z,37.10
2024-04-24T20:43:42.295Z,37.00
2024-04-24T20:46:09.108Z,37.00
2024-04-24T20:48:36.102Z,37.10
2024-04-24T20:51:02.948Z,37.10
2024-04-24T20:53:29.782Z,37.10
2024-04-24T20:55:56.670Z,37.30
2024-04-24T20:58:23.452Z,37.30
2024-04-24T21:00:50.274Z,37.30
2024-04-24T21:03:17.097Z,38.00
2024-04-24T21:05:44.371Z,37.40
2024-04-24T21:08:11.322Z,37.40
2024-04-24T21:10:38.550Z,37.50
2024-04-24T21:13:05.283Z,37.60
2024-04-24T21:15:32.271Z,37.60
2024-04-24T21:17:59.123Z,37.60
2024-04-24T21:20:26.019Z,37.70
2024-04-24T21:22:53.772Z,37.90
2024-04-24T21:25:20.851Z,38.20
2024-04-24T21:27:47.614Z,39.30
2024-04-24T21:30:14.386Z,39.30
2024-04-24T21:32:41.335Z,39.50
2024-04-24T21:35:08.160Z,39.60
2024-04-24T21:37:37.218Z,39.60
2024-04-24T21:40:04.448Z,39.60
2024-04-24T21:42:31.238Z,39.70
2024-04-24T21:44:57.991Z,39.60
2024-04-24T21:47:24.905Z,39.70
2024-04-24T21:49:51.762Z,39.70
2024-04-24T21:52:18.522Z,39.80
2024-04-24T21:54:45.267Z,39.80
2024-04-24T21:57:12.011Z,40.00
2024-04-24T21:59:38.894Z,40.20
2024-04-24T22:02:05.840Z,40.20
2024-04-24T22:04:32.761Z,40.30
2024-04-24T22:07:00.938Z,40.40
2024-04-24T22:09:28.104Z,40.90
2024-04-24T22:11:55.718Z,41.00
2024-04-24T22:14:23.492Z,41.20
2024-04-24T22:16:50.336Z,41.40
2024-04-24T22:19:17.240Z,41.50
2024-04-24T22:21:44.085Z,41.60
2024-04-24T22:24:10.877Z,41.50
2024-04-24T22:26:38.766Z,41.50
2024-04-24T22:29:05.585Z,41.60
2024-04-24T22:31:32.428Z,41.70
2024-04-24T22:33:59.259Z,42.00
2024-04-24T22:36:26.058Z,42.10
2024-04-24T22:38:52.916Z,42.20
2024-04-24T22:41:19.701Z,42.10
2024-04-24T22:43:47.496Z,42.40
2024-04-24T22:46:16.649Z,42.60
2024-04-24T22:48:44.393Z,42.60
2024-04-24T22:51:14.733Z,42.70
2024-04-24T22:53:44.622Z,42.80
2024-04-24T22:56:12.534Z,42.90
2024-04-24T22:58:39.336Z,42.90
2024-04-24T23:01:06.219Z,43.10
2024-04-24T23:03:33.067Z,43.20
2024-04-24T23:05:59.901Z,43.40
2024-04-24T23:08:26.669Z,43.70
2024-04-24T23:10:53.429Z,44.10
2024-04-24T23:13:20.298Z,44.10
2024-04-24T23:15:47.054Z,44.30
2024-04-24T23:18:13.875Z,44.50
2024-04-24T23:20:41.420Z,44.70
2024-04-24T23:23:08.265Z,44.60
2024-04-24T23:25:35.031Z,44.90
2024-04-24T23:28:01.802Z,45.10
2024-04-24T23:30:28.551Z,45.30
2024-04-24T23:32:56.361Z,45.30
2024-04-24T23:35:23.184Z,45.50
2024-04-24T23:37:50.013Z,45.50
2024-04-24T23:40:16.750Z,45.60
2024-04-24T23:42:43.583Z,45.70
2024-04-24T23:45:10.329Z,45.80
2024-04-24T23:47:37.135Z,45.80
2024-04-24T23:50:04.132Z,45.80
2024-04-24T23:52:30.890Z,45.90
2024-04-24T23:54:57.663Z,46.00
2024-04-24T23:57:24.401Z,45.90
2024-04-24T23:59:51.344Z,45.80
